Time;durP1;ratioP1;P1;durP2;ratioP2;P2;SDS_P1;SDS_P2;PMS_P1;PMS_P2;Temp;Humidity;BMP_temperature;BMP_pressure;BME280_temperature;BME280_humidity;BME280_pressure;Samples;Min_cycle;Max_cycle;Signal;HPM_P1;HPM_P2
2022/06/20 00:02:27;;;;;;;1.77;0.90;;;19.50;61.10;;;;;;5063094;28;20045;-70
2022/06/20 00:04:54;;;;;;;2.08;1.00;;;19.90;61.20;;;;;;5049537;28;20135;-70
2022/06/20 00:07:21;;;;;;;1.92;1.20;;;20.10;61.00;;;;;;5050774;28;20055;-70
2022/06/20 00:09:48;;;;;;;2.40;0.90;;;19.90;61.40;;;;;;5049387;28;20135;-69
2022/06/20 00:12:18;;;;;;;2.08;0.90;;;20.10;61.80;;;;;;5049234;28;20128;-69
2022/06/20 00:14:45;;;;;;;1.52;0.90;;;20.10;57.00;;;;;;5049639;28;20402;-70
2022/06/20 00:17:12;;;;;;;1.98;0.90;;;20.80;61.50;;;;;;5049411;28;20063;-70
2022/06/20 00:19:42;;;;;;;2.53;1.23;;;20.10;61.20;;;;;;5061265;28;20052;-70
2022/06/20 00:22:09;;;;;;;2.45;1.17;;;20.00;56.90;;;;;;5070603;28;20049;-70
2022/06/20 00:24:36;;;;;;;1.95;0.95;;;19.80;60.70;;;;;;5070197;28;20052;-70
2022/06/20 00:27:06;;;;;;;3.08;1.20;;;20.00;59.70;;;;;;5069086;28;20409;-71
2022/06/20 00:29:33;;;;;;;2.65;1.20;;;20.00;61.40;;;;;;5069329;28;20056;-70
2022/06/20 00:32:00;;;;;;;1.15;0.88;;;19.90;60.60;;;;;;5069339;28;20052;-70
2022/06/20 00:34:26;;;;;;;3.08;1.08;;;20.00;57.00;;;;;;5068825;28;20053;-70
2022/06/20 00:36:54;;;;;;;1.40;0.90;;;20.10;59.60;;;;;;5068428;28;20074;-71
2022/06/20 00:39:21;;;;;;;1.75;0.90;;;18.90;61.30;;;;;;5069201;28;20143;-70
2022/06/20 00:41:48;;;;;;;1.50;0.80;;;20.20;60.70;;;;;;5069465;28;20047;-70
2022/06/20 00:44:17;;;;;;;1.70;0.90;;;20.00;57.00;;;;;;5069822;28;20047;-70
2022/06/20 00:46:45;;;;;;;2.05;1.00;;;20.00;57.00;;;;;;5068774;28;20140;-70
2022/06/20 00:49:13;;;;;;;1.45;0.85;;;19.70;60.40;;;;;;5068398;28;20499;-70
2022/06/20 00:51:42;;;;;;;1.40;0.90;;;20.00;57.00;;;;;;5068183;28;20127;-70
2022/06/20 00:54:14;;;;;;;3.30;1.00;;;20.00;57.00;;;;;;5066446;28;20063;-70
2022/06/20 00:56:50;;;;;;;1.02;0.75;;;20.30;61.40;;;;;;5068784;28;20056;-70
2022/06/20 00:59:18;;;;;;;1.13;0.85;;;20.00;57.00;;;;;;5068851;28;20074;-71
2022/06/20 01:01:45;;;;;;;2.08;0.95;;;19.80;61.70;;;;;;5068046;28;20059;-71
2022/06/20 01:04:14;;;;;;;1.73;0.90;;;19.90;60.80;;;;;;5069067;28;20135;-71
2022/06/20 01:06:43;;;;;;;1.55;0.75;;;20.00;61.70;;;;;;5068759;28;20056;-69
2022/06/20 01:09:11;;;;;;;2.28;1.00;;;19.90;61.20;;;;;;5061014;28;20135;-70
2022/06/20 01:11:44;;;;;;;2.13;0.93;;;19.90;61.20;;;;;;5048390;28;20052;-71
2022/06/20 01:14:26;;;;;;;1.55;0.88;;;19.90;60.80;;;;;;5047803;28;20053;-70
2022/06/20 01:16:56;;;;;;;2.20;0.90;;;20.00;59.80;;;;;;5048204;28;20063;-72
2022/06/20 01:19:31;;;;;;;1.58;0.85;;;19.70;61.10;;;;;;5048221;28;20645;-72
2022/06/20 01:21:58;;;;;;;2.47;1.05;;;20.40;61.10;;;;;;5048479;28;20067;-72
2022/06/20 01:24:27;;;;;;;2.22;0.90;;;19.90;57.10;;;;;;5047420;28;20055;-72
2022/06/20 01:26:56;;;;;;;2.25;1.15;;;20.20;59.90;;;;;;5048848;28;20464;-72
2022/06/20 01:29:24;;;;;;;1.98;1.00;;;19.80;57.00;;;;;;5049302;28;20055;-72
2022/06/20 01:31:55;;;;;;;1.27;0.82;;;19.90;57.00;;;;;;5047897;28;20053;-72
2022/06/20 01:34:22;;;;;;;1.50;0.80;;;19.30;61.00;;;;;;5047562;28;20049;-72
2022/06/20 01:39:39;;;;;;;1.05;0.80;;;19.80;57.10;;;;;;5048146;28;20053;-71
2022/06/20 01:42:20;;;;;;;1.48;0.80;;;19.60;61.60;;;;;;5050301;28;20057;-73
2022/06/20 01:44:49;;;;;;;2.03;0.98;;;19.80;57.10;;;;;;5047850;28;20048;-73
2022/06/20 01:47:16;;;;;;;1.60;1.05;;;19.90;61.60;;;;;;5047765;28;20049;-73
2022/06/20 01:49:44;;;;;;;2.17;1.00;;;19.80;57.10;;;;;;5047919;28;20057;-72
2022/06/20 01:52:15;;;;;;;2.08;1.13;;;19.80;57.00;;;;;;5064538;28;20044;-73
2022/06/20 01:54:43;;;;;;;1.42;0.90;;;19.80;57.00;;;;;;5066840;28;20056;-73
2022/06/20 01:57:10;;;;;;;2.22;0.98;;;19.50;61.00;;;;;;5067709;28;20497;-73
2022/06/20 01:59:38;;;;;;;1.08;0.80;;;19.80;62.40;;;;;;5054305;28;20048;-73
2022/06/20 02:02:06;;;;;;;2.63;1.00;;;19.70;61.00;;;;;;5057725;28;20143;-73
2022/06/20 02:04:33;;;;;;;1.90;0.80;;;19.80;57.10;;;;;;5068375;28;20485;-73
2022/06/20 02:07:01;;;;;;;1.65;1.10;;;19.10;59.80;;;;;;5067705;28;20087;-73
2022/06/20 02:09:28;;;;;;;1.75;1.00;;;19.70;61.20;;;;;;5067658;28;20481;-73
2022/06/20 02:11:54;;;;;;;2.92;1.08;;;19.70;57.10;;;;;;5067797;28;20045;-72
2022/06/20 02:14:22;;;;;;;1.20;0.85;;;19.60;60.90;;;;;;5067054;28;20052;-72
2022/06/20 02:16:51;;;;;;;1.83;1.00;;;20.20;57.50;;;;;;5051700;28;20140;-72
2022/06/20 02:19:21;;;;;;;1.52;1.00;;;19.70;57.10;;;;;;5048570;28;20152;-73
2022/06/20 02:21:47;;;;;;;2.15;0.90;;;20.80;62.70;;;;;;5047532;28;20063;-72
2022/06/20 02:24:16;;;;;;;1.38;0.80;;;19.70;57.10;;;;;;5047217;28;20133;-72
2022/06/20 02:26:44;;;;;;;1.38;0.90;;;19.80;62.20;;;;;;5048441;28;20051;-72
2022/06/20 02:29:21;;;;;;;1.67;0.90;;;19.70;60.90;;;;;;5047479;28;20150;-72
2022/06/20 02:31:48;;;;;;;2.20;0.90;;;19.60;61.20;;;;;;5048461;28;20045;-75
2022/06/20 02:34:15;;;;;;;1.63;0.90;;;19.70;60.50;;;;;;5047080;28;20071;-72
2022/06/20 02:36:43;;;;;;;1.77;1.00;;;19.70;60.80;;;;;;5047184;28;20076;-73
2022/06/20 02:39:09;;;;;;;2.03;0.80;;;19.70;57.10;;;;;;5047161;28;20514;-72
2022/06/20 02:41:36;;;;;;;1.25;1.00;;;19.70;57.10;;;;;;5047539;28;20692;-72
2022/06/20 02:44:07;;;;;;;2.42;1.08;;;19.70;57.10;;;;;;5046811;28;20124;-72
2022/06/20 02:46:33;;;;;;;1.63;0.98;;;19.70;61.60;;;;;;5049086;28;20144;-72
2022/06/20 02:49:01;;;;;;;1.75;0.80;;;19.50;61.10;;;;;;5059006;28;20067;-72
2022/06/20 02:51:29;;;;;;;1.10;0.90;;;19.80;61.10;;;;;;5047203;28;20486;-72
2022/06/20 02:53:58;;;;;;;1.27;0.98;;;19.70;57.10;;;;;;5046722;28;20055;-72
2022/06/20 02:56:26;;;;;;;1.42;0.80;;;19.80;60.80;;;;;;5052733;28;20075;-72
2022/06/20 02:58:55;;;;;;;1.17;0.80;;;19.70;57.00;;;;;;5066928;28;20151;-72
2022/06/20 03:01:24;;;;;;;3.17;1.10;;;19.60;60.40;;;;;;5066478;28;20131;-73
2022/06/20 03:03:52;;;;;;;2.10;1.10;;;19.60;57.00;;;;;;5066915;28;20048;-73
2022/06/20 03:06:23;;;;;;;1.23;0.90;;;19.60;61.40;;;;;;5069084;28;20128;-73
2022/06/20 03:08:49;;;;;;;2.65;0.80;;;19.70;57.10;;;;;;5070631;28;20512;-72
2022/06/20 03:11:18;;;;;;;1.65;0.80;;;19.70;57.10;;;;;;5070292;28;20132;-72
2022/06/20 03:13:46;;;;;;;1.08;0.80;;;19.60;57.00;;;;;;5070218;28;20044;-72
2022/06/20 03:16:12;;;;;;;2.38;1.00;;;19.60;61.70;;;;;;5071594;28;20052;-70
2022/06/20 03:18:48;;;;;;;1.70;1.05;;;19.50;56.90;;;;;;5070539;28;20078;-71
2022/06/20 03:21:14;;;;;;;1.38;0.70;;;19.60;61.50;;;;;;5070553;28;20066;-72
2022/06/20 03:23:41;;;;;;;2.20;1.00;;;19.60;61.60;;;;;;5068693;28;20124;-71
2022/06/20 03:26:12;;;;;;;2.65;1.00;;;19.60;56.90;;;;;;5054640;28;20482;-73
2022/06/20 03:28:40;;;;;;;1.77;0.98;;;19.60;57.00;;;;;;5050430;28;20413;-72
2022/06/20 03:31:09;;;;;;;1.65;0.80;;;19.70;61.40;;;;;;5050256;28;20055;-72
2022/06/20 03:33:36;;;;;;;1.15;0.90;;;20.10;61.30;;;;;;5048967;28;20167;-73
2022/06/20 03:36:05;;;;;;;1.35;0.88;;;19.60;60.80;;;;;;5050074;28;20059;-72
2022/06/20 03:38:32;;;;;;;1.35;0.80;;;19.50;56.90;;;;;;5051257;28;20135;-72
2022/06/20 03:40:59;;;;;;;1.85;0.80;;;19.50;62.00;;;;;;5050356;28;20080;-72
2022/06/20 03:43:26;;;;;;;2.80;1.20;;;20.40;62.40;;;;;;5057981;28;20135;-73
2022/06/20 03:45:57;;;;;;;1.20;0.77;;;19.50;56.90;;;;;;5070008;28;20753;-72
2022/06/20 03:48:27;;;;;;;1.20;0.90;;;19.50;56.90;;;;;;5070187;28;20151;-73
2022/06/20 03:50:55;;;;;;;1.48;0.80;;;19.40;61.20;;;;;;5069688;28;20155;-74
2022/06/20 03:53:26;;;;;;;1.33;0.85;;;19.50;57.00;;;;;;5069406;28;20472;-72
2022/06/20 03:55:56;;;;;;;1.08;0.80;;;19.40;61.20;;;;;;5065242;28;20052;-73
2022/06/20 03:58:25;;;;;;;1.17;0.98;;;19.50;57.00;;;;;;5071148;28;20055;-72
2022/06/20 04:00:55;;;;;;;2.17;1.20;;;19.50;61.30;;;;;;5068940;28;20055;-72
2022/06/20 04:03:26;;;;;;;1.17;0.88;;;20.30;61.40;;;;;;5069360;28;20048;-72
2022/06/20 04:05:55;;;;;;;1.35;0.90;;;19.50;57.00;;;;;;5069514;28;20114;-72
2022/06/20 04:08:24;;;;;;;2.00;1.00;;;19.50;57.00;;;;;;5070068;28;20401;-72
2022/06/20 04:10:57;;;;;;;1.38;0.90;;;19.50;57.00;;;;;;5069556;28;20063;-72
2022/06/20 04:13:26;;;;;;;2.17;1.00;;;19.50;57.00;;;;;;5054568;28;20580;-72
2022/06/20 04:15:58;;;;;;;2.00;0.90;;;19.00;60.60;;;;;;5049118;28;20478;-72
2022/06/20 04:18:30;;;;;;;1.45;0.80;;;19.40;61.00;;;;;;5048773;28;20057;-73
2022/06/20 04:21:03;;;;;;;1.65;1.00;;;19.50;57.00;;;;;;5049804;28;20652;-73
2022/06/20 04:23:33;;;;;;;0.85;0.75;;;19.60;61.00;;;;;;5049373;28;20132;-72
2022/06/20 04:26:02;;;;;;;1.40;0.90;;;19.50;60.70;;;;;;5049502;28;20084;-73
2022/06/20 04:28:33;;;;;;;1.20;0.90;;;19.00;60.60;;;;;;5050001;28;20063;-72
2022/06/20 04:31:03;;;;;;;2.47;0.90;;;18.80;60.50;;;;;;5049261;28;20057;-73
2022/06/20 04:33:34;;;;;;;1.85;0.90;;;19.50;60.60;;;;;;5048909;28;20059;-73
2022/06/20 04:36:14;;;;;;;1.75;0.90;;;19.70;60.90;;;;;;5049256;28;20056;-73
2022/06/20 04:38:44;;;;;;;2.45;0.95;;;19.60;56.80;;;;;;5049276;28;20061;-73
2022/06/20 04:41:12;;;;;;;1.48;1.00;;;19.60;60.90;;;;;;5068164;28;20066;-73
2022/06/20 04:43:41;;;;;;;1.90;1.00;;;19.50;56.80;;;;;;5063967;28;20049;-72
2022/06/20 04:46:14;;;;;;;4.63;0.98;;;19.50;56.90;;;;;;5058656;28;20056;-73
2022/06/20 04:48:40;;;;;;;2.67;1.08;;;19.50;56.90;;;;;;5054769;28;20048;-72
2022/06/20 04:51:08;;;;;;;1.38;0.90;;;19.50;56.90;;;;;;5056279;28;20079;-72
2022/06/20 04:53:36;;;;;;;1.95;0.93;;;19.40;61.40;;;;;;5057068;28;20053;-72
2022/06/20 04:56:04;;;;;;;1.90;0.90;;;19.50;60.60;;;;;;5060942;28;20050;-72
2022/06/20 04:58:34;;;;;;;2.00;0.98;;;20.20;61.30;;;;;;5058378;28;20052;-71
2022/06/20 05:01:01;;;;;;;2.47;1.10;;;19.50;61.80;;;;;;5058023;28;20055;-71
2022/06/20 05:03:30;;;;;;;2.55;0.82;;;19.50;61.90;;;;;;5056628;28;20041;-72
2022/06/20 05:05:57;;;;;;;1.73;1.10;;;19.50;57.00;;;;;;5058645;28;20067;-71
2022/06/20 05:08:27;;;;;;;2.88;1.20;;;19.50;57.00;;;;;;5058011;28;20059;-71
2022/06/20 05:10:55;;;;;;;0.95;0.88;;;19.60;61.40;;;;;;5057036;28;20053;-71
2022/06/20 05:13:23;;;;;;;1.88;0.90;;;19.40;61.10;;;;;;5057347;28;20052;-72
2022/06/20 05:15:50;;;;;;;2.95;1.10;;;19.50;57.00;;;;;;5048981;28;20049;-71
2022/06/20 05:18:21;;;;;;;3.00;1.10;;;19.50;57.10;;;;;;5058585;28;20131;-71
2022/06/20 05:20:49;;;;;;;2.17;0.93;;;20.60;61.50;;;;;;5059400;28;20135;-70
2022/06/20 05:23:17;;;;;;;5.70;1.20;;;20.00;60.90;;;;;;5062019;28;20052;-71
2022/06/20 05:25:44;;;;;;;2.33;1.00;;;19.50;57.00;;;;;;5067853;28;20063;-71
2022/06/20 05:28:12;;;;;;;1.90;1.05;;;19.50;57.00;;;;;;5067911;28;20143;-72
2022/06/20 05:30:39;;;;;;;2.72;1.00;;;19.50;61.50;;;;;;5068041;28;20139;-71
2022/06/20 05:33:11;;;;;;;4.05;1.45;;;18.90;61.10;;;;;;5063020;28;20155;-71
2022/06/20 05:35:40;;;;;;;2.47;1.00;;;19.50;57.00;;;;;;5051876;28;20047;-71
2022/06/20 05:38:13;;;;;;;2.58;1.08;;;19.60;57.10;;;;;;5067741;28;20051;-71
2022/06/20 05:40:42;;;;;;;2.25;1.10;;;19.60;57.00;;;;;;5068897;28;20049;-71
2022/06/20 05:43:10;;;;;;;2.13;1.20;;;19.70;56.90;;;;;;5067014;28;20056;-73
2022/06/20 05:45:37;;;;;;;1.60;1.08;;;19.90;60.40;;;;;;5067694;28;20137;-72
2022/06/20 05:48:05;;;;;;;1.48;1.10;;;19.90;56.70;;;;;;5067567;28;20512;-71
2022/06/20 05:50:41;;;;;;;2.65;1.00;;;20.00;56.50;;;;;;5067113;28;20131;-71
2022/06/20 05:53:12;;;;;;;2.55;1.10;;;20.50;61.50;;;;;;5067450;28;20052;-72
2022/06/20 05:55:41;;;;;;;3.55;1.30;;;20.30;60.70;;;;;;5067506;28;20510;-72
2022/06/20 05:58:08;;;;;;;2.53;1.10;;;20.50;61.20;;;;;;5067476;28;20057;-72
2022/06/20 06:00:35;;;;;;;4.55;1.20;;;20.40;60.50;;;;;;5067451;28;20053;-72
2022/06/20 06:03:04;;;;;;;2.85;1.20;;;20.60;60.80;;;;;;5066680;28;20088;-72
2022/06/20 06:05:33;;;;;;;2.05;1.27;;;20.90;59.50;;;;;;5069011;28;20050;-72
2022/06/20 06:08:02;;;;;;;2.00;0.80;;;20.80;55.50;;;;;;5067737;28;20128;-72
2022/06/20 06:10:37;;;;;;;2.67;1.13;;;21.10;59.90;;;;;;5067448;28;20056;-72
2022/06/20 06:13:06;;;;;;;;;;;21.00;55.10;;;;;;5068961;28;20049;-72
2022/06/20 06:15:37;;;;;;;2.40;1.17;;;21.30;59.60;;;;;;5066871;28;20407;-72
2022/06/20 06:18:05;;;;;;;1.58;1.08;;;21.20;54.80;;;;;;5067373;28;20483;-72
2022/06/20 06:20:32;;;;;;;2.13;1.00;;;22.30;60.30;;;;;;5066732;28;20055;-72
2022/06/20 06:23:01;;;;;;;2.90;1.05;;;21.30;58.90;;;;;;5068107;28;20049;-72
2022/06/20 06:25:29;;;;;;;2.33;1.17;;;21.50;54.40;;;;;;5066637;28;20424;-72
2022/06/20 06:27:59;;;;;;;1.73;1.10;;;22.50;59.80;;;;;;5067468;28;20083;-72
2022/06/20 06:30:28;;;;;;;3.10;1.10;;;22.40;58.60;;;;;;5058550;28;20124;-71
2022/06/20 06:32:57;;;;;;;1.33;0.90;;;21.80;54.00;;;;;;5068373;28;20053;-71
2022/06/20 06:35:26;;;;;;;4.50;1.02;;;22.00;58.40;;;;;;5067168;28;20170;-72
2022/06/20 06:37:56;;;;;;;3.67;1.10;;;21.90;53.70;;;;;;5067301;28;20058;-72
2022/06/20 06:40:25;;;;;;;2.15;1.00;;;22.00;53.60;;;;;;5065961;28;20045;-72
2022/06/20 06:42:54;;;;;;;4.22;1.15;;;22.00;58.40;;;;;;5059919;28;20110;-72
2022/06/20 06:45:23;;;;;;;2.83;1.20;;;22.20;53.40;;;;;;5061086;28;20593;-72
2022/06/20 06:47:52;;;;;;;2.20;1.17;;;22.10;58.00;;;;;;5060180;28;20048;-72
2022/06/20 06:50:23;;;;;;;2.38;1.33;;;22.20;53.10;;;;;;5052040;28;20088;-72
2022/06/20 06:52:52;;;;;;;2.53;1.30;;;23.30;57.80;;;;;;5050747;28;20386;-71
2022/06/20 06:55:23;;;;;;;2.90;1.20;;;22.30;52.90;;;;;;5050725;28;20045;-72
2022/06/20 06:57:51;;;;;;;1.95;1.20;;;22.40;52.90;;;;;;5066643;28;20052;-72
2022/06/20 07:00:24;;;;;;;3.38;1.40;;;22.40;52.80;;;;;;5072118;28;20050;-71
2022/06/20 07:02:53;;;;;;;4.45;1.63;;;22.50;52.70;;;;;;5057653;28;20752;-72
2022/06/20 07:05:23;;;;;;;4.63;1.55;;;22.20;56.80;;;;;;5062406;28;20045;-71
2022/06/20 07:07:51;;;;;;;4.95;1.77;;;22.50;52.60;;;;;;5058580;28;20049;-71
2022/06/20 07:10:19;;;;;;;3.88;1.85;;;22.40;52.40;;;;;;5058270;28;20059;-71
2022/06/20 07:12:48;;;;;;;2.95;1.55;;;22.30;52.20;;;;;;5053825;28;20063;-71
2022/06/20 07:15:16;;;;;;;3.20;1.80;;;22.30;52.10;;;;;;5057271;28;20045;-71
2022/06/20 07:17:46;;;;;;;3.97;1.70;;;22.20;56.60;;;;;;5058331;28;20056;-72
2022/06/20 07:20:13;;;;;;;5.22;1.65;;;23.10;56.70;;;;;;5060793;28;20062;-72
2022/06/20 07:22:41;;;;;;;5.70;2.13;;;22.10;52.30;;;;;;5061331;28;20136;-72
2022/06/20 07:25:08;;;;;;;3.75;1.88;;;22.00;52.40;;;;;;5055541;28;20051;-71
2022/06/20 07:27:36;;;;;;;3.78;1.63;;;22.60;57.30;;;;;;5063085;28;20049;-72
2022/06/20 07:30:07;;;;;;;5.18;1.75;;;22.40;56.90;;;;;;5062407;28;20052;-72
2022/06/20 07:32:36;;;;;;;3.63;1.75;;;22.10;56.90;;;;;;5059292;28;20044;-72
2022/06/20 07:35:08;;;;;;;3.38;1.60;;;22.20;57.60;;;;;;5065248;28;20127;-73
2022/06/20 07:37:36;;;;;;;2.90;1.60;;;22.10;57.10;;;;;;5070069;28;20060;-72
2022/06/20 07:40:05;;;;;;;4.15;1.65;;;22.30;52.60;;;;;;5070175;28;20078;-73
2022/06/20 07:42:36;;;;;;;3.13;1.60;;;22.20;57.10;;;;;;5062451;28;20127;-73
2022/06/20 07:45:06;;;;;;;2.92;1.42;;;22.50;52.60;;;;;;5058126;28;20048;-73
2022/06/20 07:47:36;;;;;;;3.15;1.60;;;22.20;56.80;;;;;;5069856;28;20500;-73
2022/06/20 07:50:07;;;;;;;2.92;1.58;;;22.50;57.40;;;;;;5072600;28;20452;-72
2022/06/20 07:52:35;;;;;;;3.58;1.80;;;22.60;57.30;;;;;;5071434;28;20052;-71
2022/06/20 07:55:05;;;;;;;2.33;1.60;;;23.50;57.10;;;;;;5069394;28;20055;-71
2022/06/20 07:57:33;;;;;;;4.53;1.60;;;22.60;52.50;;;;;;5069873;28;20048;-72
2022/06/20 08:00:04;;;;;;;3.42;1.85;;;22.50;52.40;;;;;;5069238;28;20378;-73
2022/06/20 08:02:33;;;;;;;10.68;3.50;;;22.50;56.90;;;;;;5069492;28;20150;-72
2022/06/20 08:05:01;;;;;;;8.95;2.83;;;22.60;52.40;;;;;;5069185;28;20059;-71
2022/06/20 08:07:31;;;;;;;14.65;2.70;;;22.60;52.40;;;;;;5069781;28;20130;-71
2022/06/20 08:09:59;;;;;;;9.45;2.95;;;22.60;52.40;;;;;;5069084;28;20067;-71
2022/06/20 08:12:28;;;;;;;21.20;3.95;;;22.00;56.60;;;;;;5057869;28;20060;-71
2022/06/20 08:14:56;;;;;;;14.00;3.47;;;22.60;52.10;;;;;;5054553;28;20040;-71
2022/06/20 08:17:23;;;;;;;16.27;3.88;;;22.70;56.00;;;;;;5069526;28;20060;-72
2022/06/20 08:19:49;;;;;;;11.95;3.47;;;21.20;56.00;;;;;;5057634;28;20132;-72
2022/06/20 08:22:17;;;;;;;11.68;3.35;;;22.50;52.30;;;;;;5054431;28;20049;-72
2022/06/20 08:24:49;;;;;;;17.02;3.30;;;22.40;52.30;;;;;;5052120;28;20127;-71
2022/06/20 08:27:21;;;;;;;11.65;3.50;;;22.30;52.40;;;;;;5051748;28;20049;-72
2022/06/20 08:29:49;;;;;;;17.63;3.85;;;22.20;56.60;;;;;;5049662;28;20049;-72
2022/06/20 08:32:19;;;;;;;7.93;2.97;;;22.10;56.10;;;;;;5057457;28;20055;-72
2022/06/20 08:34:49;;;;;;;13.75;3.20;;;23.10;58.60;;;;;;5057448;28;20159;-72
2022/06/20 08:37:19;;;;;;;15.27;3.53;;;22.10;52.60;;;;;;5058177;28;20064;-72
2022/06/20 08:39:49;;;;;;;7.15;2.75;;;22.10;52.60;;;;;;5061133;28;20110;-72
2022/06/20 08:42:42;;;;;;;12.45;3.30;;;22.10;52.60;;;;;;5069472;28;20052;-72
2022/06/20 08:45:22;;;;;;;12.73;3.08;;;22.20;52.70;;;;;;5051646;28;20075;-72
2022/06/20 08:48:23;;;;;;;12.60;3.35;;;22.00;57.00;;;;;;5047957;28;20057;-71
2022/06/20 08:51:18;;;;;;;11.93;3.13;;;22.20;52.70;;;;;;5047998;28;20041;-72
2022/06/20 08:54:18;;;;;;;;;;;22.10;52.70;;;;;;5047624;28;20053;-71
2022/06/20 08:56:51;;;;;;;13.63;3.03;;;22.40;57.30;;;;;;4998241;28;20015;-71
2022/06/20 08:59:28;;;;;;;11.52;3.38;;;22.10;57.70;;;;;;5010105;28;20057;-71
2022/06/20 09:01:58;;;;;;;12.57;3.00;;;22.10;53.10;;;;;;5039959;28;20531;-71
2022/06/20 09:04:33;;;;;;;10.27;2.60;;;22.10;53.00;;;;;;5068745;28;20055;-71
2022/06/20 09:07:38;;;;;;;7.32;2.60;;;21.80;55.00;;;;;;5067382;28;20067;-71
2022/06/20 09:10:21;;;;;;;10.38;3.45;;;23.40;55.20;;;;;;5068329;28;20497;-71
2022/06/20 09:13:13;;;;;;;14.52;2.88;;;22.30;52.90;;;;;;5068386;28;20060;-71
2022/06/20 09:15:45;;;;;;;9.75;2.80;;;22.10;56.30;;;;;;5058374;28;20052;-71
2022/06/20 09:18:16;;;;;;;7.85;2.83;;;22.30;52.80;;;;;;5068598;28;20053;-71
2022/06/20 09:20:45;;;;;;;8.20;2.80;;;22.30;57.70;;;;;;5069014;28;20168;-71
2022/06/20 09:23:23;;;;;;;6.88;2.58;;;22.30;57.40;;;;;;5069034;28;20129;-71
2022/06/20 09:25:56;;;;;;;5.47;2.22;;;22.40;52.70;;;;;;5049119;28;20045;-71
2022/06/20 09:28:45;;;;;;;6.13;2.38;;;22.30;52.50;;;;;;5049158;28;20055;-71
2022/06/20 09:31:20;;;;;;;8.02;2.25;;;22.30;57.00;;;;;;5049394;28;20057;-71
2022/06/20 09:34:16;;;;;;;8.73;2.45;;;22.50;52.60;;;;;;5047529;28;20135;-71
2022/06/20 09:36:58;;;;;;;4.97;2.17;;;22.50;52.60;;;;;;5048966;28;20051;-72
2022/06/20 09:39:37;;;;;;;7.93;2.22;;;22.50;52.40;;;;;;5048135;28;20053;-72
2022/06/20 09:42:10;;;;;;;6.68;2.10;;;22.50;52.50;;;;;;5065407;28;20490;-71
2022/06/20 09:44:44;;;;;;;5.38;2.00;;;23.20;56.40;;;;;;5067628;28;20505;-71
2022/06/20 09:47:25;;;;;;;7.80;2.20;;;22.50;56.10;;;;;;5068832;28;20047;-71
2022/06/20 09:49:56;;;;;;;5.57;2.17;;;22.50;52.00;;;;;;5067874;28;20140;-72
2022/06/20 09:52:34;;;;;;;6.63;1.90;;;22.60;55.80;;;;;;5068917;28;20045;-71
2022/06/20 09:55:04;;;;;;;6.03;2.10;;;22.70;55.90;;;;;;5067453;28;20121;-71
2022/06/20 09:57:46;;;;;;;5.40;1.92;;;22.40;55.90;;;;;;5062031;28;20045;-72
2022/06/20 10:00:16;;;;;;;4.93;2.10;;;21.60;54.70;;;;;;5048397;28;20413;-71
2022/06/20 10:02:50;;;;;;;5.00;1.90;;;22.50;54.40;;;;;;5063472;28;20071;-72
2022/06/20 10:05:20;;;;;;;9.95;3.05;;;22.30;55.50;;;;;;5068405;28;20071;-71
2022/06/20 10:07:48;;;;;;;5.40;2.00;;;22.20;51.10;;;;;;5067699;28;20067;-71
2022/06/20 10:10:18;;;;;;;4.57;2.00;;;22.20;51.20;;;;;;5067519;28;20504;-71
2022/06/20 10:12:47;;;;;;;7.20;2.53;;;22.20;51.30;;;;;;5067565;28;20540;-72
2022/06/20 10:15:19;;;;;;;4.80;1.90;;;22.00;55.10;;;;;;5054617;28;20055;-72
2022/06/20 10:17:50;;;;;;;3.95;1.80;;;22.30;55.70;;;;;;5063750;28;20131;-72
2022/06/20 10:20:24;;;;;;;5.20;1.75;;;21.60;55.40;;;;;;5071973;28;20079;-71
2022/06/20 10:22:54;;;;;;;4.35;1.70;;;22.20;51.50;;;;;;5064543;28;20059;-71
2022/06/20 10:25:34;;;;;;;7.70;1.80;;;22.20;51.80;;;;;;5052827;28;20418;-71
2022/06/20 10:28:03;;;;;;;6.22;1.85;;;21.10;55.40;;;;;;5051432;28;20053;-72
2022/06/20 10:30:39;;;;;;;5.95;2.20;;;22.20;51.90;;;;;;5060956;28;20051;-71
2022/06/20 10:33:15;;;;;;;6.90;1.83;;;22.20;51.90;;;;;;5051714;28;20049;-71
2022/06/20 10:35:44;;;;;;;4.95;1.67;;;22.10;51.90;;;;;;5056096;28;20055;-71
2022/06/20 10:38:17;;;;;;;5.32;1.80;;;22.10;52.00;;;;;;5050215;28;20128;-71
2022/06/20 10:40:48;;;;;;;3.60;1.67;;;22.10;52.00;;;;;;5051155;28;20067;-71
2022/06/20 10:43:21;;;;;;;2.72;1.58;;;22.20;52.00;;;;;;5050846;28;20053;-71
2022/06/20 10:45:51;;;;;;;3.78;1.90;;;22.20;51.90;;;;;;5052447;28;20094;-71
2022/06/20 10:48:40;;;;;;;4.25;1.58;;;22.20;51.90;;;;;;5052453;28;20124;-71
2022/06/20 10:51:10;;;;;;;2.78;1.52;;;22.20;55.20;;;;;;5052257;28;20045;-71
2022/06/20 10:53:39;;;;;;;4.60;1.92;;;22.20;52.00;;;;;;5060575;28;20152;-71
2022/06/20 10:56:09;;;;;;;3.20;1.70;;;22.20;52.00;;;;;;5071118;28;20036;-71
2022/06/20 10:58:47;;;;;;;3.90;1.30;;;22.20;56.10;;;;;;5072340;28;20048;-71
2022/06/20 11:01:18;;;;;;;3.72;1.48;;;22.10;55.70;;;;;;5071499;28;20044;-71
2022/06/20 11:04:17;;;;;;;2.47;1.50;;;22.20;51.70;;;;;;5071143;28;20493;-71
2022/06/20 11:06:53;;;;;;;6.72;1.52;;;22.30;56.10;;;;;;4984034;28;20046;-71
2022/06/20 11:09:23;;;;;;;2.72;1.52;;;22.20;51.80;;;;;;5038253;28;20524;-71
2022/06/20 11:11:53;;;;;;;2.67;1.30;;;22.20;51.80;;;;;;5051686;28;20049;-71
2022/06/20 11:14:23;;;;;;;1.85;1.38;;;22.10;55.50;;;;;;5059817;28;20128;-71
2022/06/20 11:16:54;;;;;;;5.25;1.30;;;22.30;55.40;;;;;;5051395;28;20140;-71
2022/06/20 11:19:29;;;;;;;2.53;1.70;;;22.30;55.40;;;;;;5051641;28;20417;-71
2022/06/20 11:22:02;;;;;;;3.45;1.50;;;22.30;51.50;;;;;;5060486;28;20428;-72
2022/06/20 11:24:37;;;;;;;2.53;1.40;;;22.20;51.60;;;;;;5066709;28;20136;-71
2022/06/20 11:27:06;;;;;;;;;;;22.20;51.80;;;;;;5056593;28;20077;-71
2022/06/20 11:29:44;;;;;;;5.57;1.30;;;22.20;52.00;;;;;;5056721;28;19960;-71
2022/06/20 11:32:23;;;;;;;3.10;1.55;;;22.20;52.10;;;;;;5061034;28;20074;-71
2022/06/20 11:35:10;;;;;;;2.80;1.27;;;22.20;52.10;;;;;;5062048;28;20051;-71
2022/06/20 11:37:56;;;;;;;2.45;1.30;;;22.20;52.20;;;;;;5055694;28;20082;-71
2022/06/20 11:40:39;;;;;;;3.78;1.30;;;22.20;52.20;;;;;;5061459;28;20585;-71
2022/06/20 11:43:24;;;;;;;2.08;1.30;;;22.60;56.40;;;;;;5060568;28;20128;-70
2022/06/20 11:45:54;;;;;;;;;;;22.20;52.30;;;;;;5070931;28;20131;-71
2022/06/20 11:48:37;;;;;;;3.13;1.60;;;22.20;56.20;;;;;;5050056;28;20007;-72
2022/06/20 11:51:07;;;;;;;3.00;1.50;;;22.20;52.40;;;;;;5049713;28;20061;-70
2022/06/20 11:53:47;;;;;;;2.97;1.50;;;22.10;52.30;;;;;;5049858;28;20060;-72
2022/06/20 11:56:19;;;;;;;2.75;1.40;;;22.20;56.20;;;;;;5054661;28;20119;-71
2022/06/20 11:59:00;;;;;;;7.93;2.03;;;22.20;52.30;;;;;;5069447;28;20053;-71
2022/06/20 12:01:30;;;;;;;4.78;1.45;;;21.60;55.20;;;;;;5069224;28;20056;-71
2022/06/20 12:04:00;;;;;;;2.15;1.20;;;22.30;57.20;;;;;;5067905;28;20055;-71
2022/06/20 12:06:30;;;;;;;2.72;1.40;;;22.00;55.70;;;;;;5059670;28;20124;-71
2022/06/20 12:08:59;;;;;;;2.30;1.40;;;22.20;52.10;;;;;;5069437;28;20070;-71
2022/06/20 12:11:47;;;;;;;5.50;1.70;;;22.20;51.90;;;;;;5070686;28;20055;-72
2022/06/20 12:14:22;;;;;;;5.22;1.58;;;22.20;51.60;;;;;;5066157;28;20081;-71
2022/06/20 12:16:52;;;;;;;3.45;1.52;;;22.10;51.60;;;;;;5065116;28;20040;-72
2022/06/20 12:25:20;;;;;;;2.93;1.37;;;22.40;55.90;;;;;;5069594;28;20372;-72
2022/06/20 12:27:47;;;;;;;4.30;1.40;;;22.00;55.60;;;;;;5069935;28;20349;-72
2022/06/20 12:30:14;;;;;;;3.25;1.50;;;22.20;56.00;;;;;;5052737;28;20056;-72
2022/06/20 12:32:42;;;;;;;4.10;2.13;;;22.10;52.20;;;;;;5070380;28;20055;-72
2022/06/20 12:35:16;;;;;;;3.65;1.50;;;22.10;52.20;;;;;;5070346;28;20071;-72
2022/06/20 12:37:44;;;;;;;1.80;1.23;;;22.10;52.30;;;;;;5068219;28;20117;-71
2022/06/20 12:40:16;;;;;;;3.95;1.33;;;21.90;56.10;;;;;;5051258;28;20178;-72
2022/06/20 12:42:45;;;;;;;4.45;1.60;;;22.10;52.30;;;;;;5048926;28;20052;-72
2022/06/20 12:45:35;;;;;;;2.65;1.35;;;22.10;56.70;;;;;;5049910;28;20044;-72
2022/06/20 12:48:08;;;;;;;3.17;1.35;;;22.10;52.30;;;;;;5050255;28;20592;-72
2022/06/20 12:50:39;;;;;;;3.38;1.50;;;22.10;52.30;;;;;;5049705;28;20053;-72
2022/06/20 12:53:17;;;;;;;3.08;1.38;;;22.10;56.70;;;;;;5049858;28;20057;-72
2022/06/20 12:56:05;;;;;;;2.97;1.40;;;20.80;55.60;;;;;;5049561;28;20060;-72
2022/06/20 12:58:45;;;;;;;2.42;1.15;;;22.10;52.30;;;;;;5048006;28;20132;-72
2022/06/20 13:01:15;;;;;;;2.17;1.30;;;22.10;52.40;;;;;;5051944;28;20053;-72
2022/06/20 13:03:56;;;;;;;2.40;1.20;;;22.10;52.50;;;;;;5068166;28;20058;-72
2022/06/20 13:07:01;;;;;;;3.28;1.40;;;21.90;56.20;;;;;;5067836;28;20463;-71
2022/06/20 13:09:44;;;;;;;5.95;1.85;;;22.10;52.50;;;;;;5054235;28;20087;-71
2022/06/20 13:12:17;;;;;;;1.75;1.20;;;22.00;52.20;;;;;;5067756;28;20413;-71
2022/06/20 13:15:21;;;;;;;4.55;1.45;;;22.00;52.10;;;;;;5069445;28;20055;-71
2022/06/20 13:17:52;;;;;;;3.55;1.58;;;21.90;56.30;;;;;;5069077;28;20048;-71
2022/06/20 13:20:28;;;;;;;4.18;1.50;;;23.10;55.60;;;;;;5069306;28;20047;-72